createdAt,value
2023-03-25T00:00:57.861Z,8.95
2023-03-25T00:03:26.562Z,5.45
2023-03-25T00:05:54.533Z,7.75
2023-03-25T00:08:22.862Z,5.97
2023-03-25T00:10:53.385Z,6.97
2023-03-25T00:13:21.514Z,5.30
2023-03-25T00:15:53.425Z,7.00
2023-03-25T00:18:21.771Z,6.20
2023-03-25T00:20:50.928Z,9.77
2023-03-25T00:23:18.985Z,6.57
2023-03-25T00:25:46.921Z,6.47
2023-03-25T00:28:14.913Z,6.82
2023-03-25T00:30:43.577Z,6.07
2023-03-25T00:33:13.529Z,6.95
2023-03-25T00:35:44.599Z,5.55
2023-03-25T00:38:12.561Z,7.07
2023-03-25T00:40:40.466Z,9.25
2023-03-25T00:43:08.466Z,5.03
2023-03-25T00:45:36.349Z,7.07
2023-03-25T00:48:06.756Z,7.85
2023-03-25T00:50:36.330Z,8.20
2023-03-25T00:53:04.391Z,5.32
2023-03-25T00:55:32.837Z,4.50
2023-03-25T00:58:00.776Z,5.03
2023-03-25T01:00:28.688Z,5.53
2023-03-25T01:02:56.777Z,6.82
2023-03-25T01:05:24.729Z,5.82
2023-03-25T01:07:53.990Z,5.30
2023-03-25T01:10:21.877Z,4.70
2023-03-25T01:12:49.865Z,9.13
2023-03-25T01:15:19.587Z,6.60
2023-03-25T01:17:48.334Z,6.55
2023-03-25T01:20:16.621Z,5.75
2023-03-25T01:22:44.717Z,5.28
2023-03-25T01:25:13.934Z,6.15
2023-03-25T01:27:41.791Z,5.75
2023-03-25T01:30:11.177Z,4.60
2023-03-25T01:32:39.181Z,4.45
2023-03-25T01:35:07.828Z,6.13
2023-03-25T01:37:36.449Z,8.20
2023-03-25T01:40:05.209Z,6.88
2023-03-25T01:42:34.526Z,6.05
2023-03-25T01:45:21.647Z,5.22
2023-03-25T01:47:50.354Z,6.05
2023-03-25T01:50:18.534Z,4.40
2023-03-25T01:52:48.168Z,5.78
2023-03-25T01:55:17.955Z,4.63
2023-03-25T01:57:47.222Z,5.03
2023-03-25T02:00:16.197Z,4.85
2023-03-25T02:02:45.647Z,4.47
2023-03-25T02:05:17.904Z,4.00
2023-03-25T02:07:46.914Z,7.50
2023-03-25T02:10:15.371Z,4.35
2023-03-25T02:12:45.656Z,4.90
2023-03-25T02:15:16.161Z,4.90
2023-03-25T02:18:02.022Z,4.57
2023-03-25T02:21:03.165Z,5.03
2023-03-25T02:24:13.820Z,4.53
2023-03-25T02:27:14.430Z,4.15
2023-03-25T02:30:12.649Z,4.45
2023-03-25T02:32:53.640Z,4.50
2023-03-25T02:35:31.311Z,3.90
2023-03-25T02:38:09.522Z,4.03
2023-03-25T02:40:43.555Z,4.55
2023-03-25T02:43:13.225Z,8.27
2023-03-25T02:45:45.417Z,4.95
2023-03-25T02:48:16.054Z,4.82
2023-03-25T02:50:46.396Z,3.17
2023-03-25T02:53:18.007Z,3.10
2023-03-25T02:55:47.909Z,5.32
2023-03-25T02:58:18.365Z,4.10
2023-03-25T03:00:46.250Z,4.97
2023-03-25T03:03:14.213Z,4.93
2023-03-25T03:05:44.457Z,3.70
2023-03-25T03:08:22.729Z,4.10
2023-03-25T03:10:51.983Z,4.88
2023-03-25T03:13:23.206Z,4.25
2023-03-25T03:15:56.060Z,3.95
2023-03-25T03:18:34.113Z,3.75
2023-03-25T03:21:07.794Z,4.20
2023-03-25T03:23:38.164Z,4.78
2023-03-25T03:26:09.013Z,4.47
2023-03-25T03:28:39.604Z,5.68
2023-03-25T03:31:08.613Z,3.88
2023-03-25T03:33:38.978Z,7.10
2023-03-25T03:36:08.212Z,3.97
2023-03-25T03:38:39.554Z,3.80
2023-03-25T03:41:09.054Z,4.72
2023-03-25T03:43:38.578Z,4.40
2023-03-25T03:46:07.536Z,3.92
2023-03-25T03:48:38.756Z,3.60
2023-03-25T03:51:08.815Z,3.60
2023-03-25T03:53:38.781Z,4.10
2023-03-25T03:56:08.759Z,4.85
2023-03-25T03:58:38.485Z,4.40
2023-03-25T04:01:09.757Z,3.90
2023-03-25T04:03:39.212Z,5.57
2023-03-25T04:06:10.995Z,4.25
2023-03-25T04:08:44.204Z,3.75
2023-03-25T04:11:13.214Z,6.40
2023-03-25T04:13:43.177Z,4.00
2023-03-25T04:16:11.105Z,4.25
2023-03-25T04:18:39.570Z,4.53
2023-03-25T04:21:09.789Z,3.97
2023-03-25T04:23:39.583Z,4.05
2023-03-25T04:26:09.006Z,3.42
2023-03-25T04:28:37.035Z,5.95
2023-03-25T04:31:07.289Z,4.45
2023-03-25T04:33:35.996Z,3.65
2023-03-25T04:36:03.971Z,3.67
2023-03-25T04:38:31.862Z,3.15
2023-03-25T04:41:00.466Z,2.95
2023-03-25T04:43:29.708Z,4.50
2023-03-25T04:45:57.637Z,3.33
2023-03-25T04:48:30.152Z,4.10
2023-03-25T04:50:59.080Z,3.25
2023-03-25T04:53:27.123Z,3.65
2023-03-25T04:55:55.174Z,3.92
2023-03-25T04:58:23.378Z,4.22
2023-03-25T05:00:52.820Z,5.03
2023-03-25T05:03:24.075Z,4.07
2023-03-25T05:05:52.886Z,3.78
2023-03-25T05:08:21.646Z,3.80
2023-03-25T05:10:49.831Z,3.95
2023-03-25T05:13:17.768Z,4.20
2023-03-25T05:15:45.624Z,3.45
2023-03-25T05:18:15.841Z,3.28
2023-03-25T05:20:44.601Z,3.63
2023-03-25T05:23:17.788Z,3.45
2023-03-25T05:25:45.832Z,3.58
2023-03-25T05:28:14.039Z,4.25
2023-03-25T05:30:43.401Z,2.45
2023-03-25T05:33:11.342Z,5.47
2023-03-25T05:35:40.616Z,5.00
2023-03-25T05:38:08.794Z,4.57
2023-03-25T05:40:37.781Z,2.72
2023-03-25T05:43:06.699Z,2.85
2023-03-25T05:45:35.910Z,3.90
2023-03-25T05:48:04.196Z,2.65
2023-03-25T05:50:32.173Z,4.32
2023-03-25T05:53:01.393Z,3.08
2023-03-25T05:55:29.329Z,4.25
2023-03-25T05:57:58.808Z,2.70
2023-03-25T06:00:26.793Z,4.00
2023-03-25T06:02:54.861Z,2.58
2023-03-25T06:05:24.232Z,3.80
2023-03-25T06:07:55.992Z,3.30
2023-03-25T06:10:25.737Z,5.82
2023-03-25T06:12:54.253Z,3.78
2023-03-25T06:15:28.827Z,5.00
2023-03-25T06:17:57.392Z,3.78
2023-03-25T06:20:25.438Z,4.50
2023-03-25T06:22:53.376Z,2.97
2023-03-25T06:25:21.720Z,5.38
2023-03-25T06:27:51.416Z,2.80
2023-03-25T06:30:20.410Z,2.75
2023-03-25T06:32:50.916Z,3.05
2023-03-25T06:35:20.280Z,3.75
2023-03-25T06:37:48.830Z,3.97
2023-03-25T06:40:25.912Z,2.80
2023-03-25T06:42:55.474Z,2.63
2023-03-25T06:45:25.998Z,5.47
2023-03-25T06:48:06.391Z,3.95
2023-03-25T06:50:34.316Z,3.08
2023-03-25T06:53:03.451Z,3.10
2023-03-25T06:55:31.321Z,3.63
2023-03-25T06:58:00.580Z,4.68
2023-03-25T07:00:28.508Z,3.35
2023-03-25T07:02:56.498Z,2.60
2023-03-25T07:05:24.435Z,3.10
2023-03-25T07:07:52.360Z,3.78
2023-03-25T07:10:20.745Z,3.03
2023-03-25T07:12:48.701Z,2.83
2023-03-25T07:15:18.206Z,2.95
2023-03-25T07:17:49.348Z,4.20
2023-03-25T07:20:17.502Z,2.75
2023-03-25T07:22:45.737Z,4.40
2023-03-25T07:25:13.628Z,3.20
2023-03-25T07:27:41.741Z,5.13
2023-03-25T07:30:14.875Z,2.97
2023-03-25T07:32:45.566Z,3.50
2023-03-25T07:35:13.618Z,3.97
2023-03-25T07:37:41.486Z,3.70
2023-03-25T07:40:10.478Z,2.80
2023-03-25T07:42:38.567Z,5.57
2023-03-25T07:45:23.139Z,2.70
2023-03-25T07:47:54.687Z,2.90
2023-03-25T07:50:26.026Z,4.50
2023-03-25T07:52:54.204Z,3.30
2023-03-25T07:55:22.151Z,3.13
2023-03-25T07:57:50.049Z,3.55
2023-03-25T08:00:18.107Z,2.78
2023-03-25T08:02:46.119Z,3.17
2023-03-25T08:05:21.139Z,2.58
2023-03-25T08:07:49.126Z,3.33
2023-03-25T08:10:17.407Z,2.80
2023-03-25T08:12:45.651Z,4.75
2023-03-25T08:15:13.849Z,4.32
2023-03-25T08:17:41.867Z,5.82
2023-03-25T08:20:11.408Z,4.30
2023-03-25T08:22:40.895Z,3.58
2023-03-25T08:25:09.707Z,3.60
2023-03-25T08:27:37.656Z,3.42
2023-03-25T08:30:06.168Z,6.45
2023-03-25T08:32:36.397Z,3.72
2023-03-25T08:35:05.663Z,5.55
2023-03-25T08:37:35.300Z,4.03
2023-03-25T08:40:07.201Z,5.22
2023-03-25T08:42:35.318Z,3.42
2023-03-25T08:45:03.849Z,3.33
2023-03-25T08:47:31.927Z,5.75
2023-03-25T08:49:59.877Z,3.42
2023-03-25T08:52:27.931Z,3.13
2023-03-25T08:54:55.935Z,5.38
2023-03-25T08:57:25.308Z,2.80
2023-03-25T08:59:53.396Z,3.35
2023-03-25T09:02:21.445Z,3.38
2023-03-25T09:04:49.720Z,3.22
2023-03-25T09:07:19.816Z,3.33
2023-03-25T09:09:48.000Z,3.70
2023-03-25T09:12:15.894Z,3.83
2023-03-25T09:14:45.167Z,7.60
2023-03-25T09:17:13.653Z,9.77
2023-03-25T09:19:41.639Z,5.07
2023-03-25T09:22:09.626Z,4.28
2023-03-25T09:24:37.817Z,6.88
2023-03-25T09:27:05.797Z,4.60
2023-03-25T09:29:33.702Z,6.95
2023-03-25T09:32:03.036Z,5.20
2023-03-25T09:34:31.093Z,12.63
2023-03-25T09:36:59.452Z,6.70
2023-03-25T09:39:27.628Z,4.03
2023-03-25T09:42:02.989Z,4.18
2023-03-25T09:44:32.122Z,15.60
2023-03-25T09:47:01.761Z,26.88
2023-03-25T09:49:34.082Z,67.30
2023-03-25T09:52:01.924Z,43.05
2023-03-25T09:54:31.027Z,60.05
2023-03-25T09:57:02.482Z,94.47
2023-03-25T09:59:37.745Z,78.40
2023-03-25T10:02:10.987Z,77.78
2023-03-25T10:04:46.456Z,77.43
2023-03-25T10:07:22.539Z,76.80
2023-03-25T10:09:52.364Z,61.70
2023-03-25T10:12:32.090Z,59.55
2023-03-25T10:15:10.764Z,54.95
2023-03-25T10:17:40.950Z,48.03
2023-03-25T10:20:13.890Z,47.40
2023-03-25T10:22:45.424Z,62.78
2023-03-25T10:25:15.416Z,46.03
2023-03-25T10:27:44.274Z,55.47
2023-03-25T10:30:14.217Z,51.70
2023-03-25T10:32:45.286Z,41.65
2023-03-25T10:35:17.040Z,48.50
2023-03-25T10:37:47.678Z,52.13
2023-03-25T10:40:21.525Z,57.63
2023-03-25T10:42:57.263Z,50.45
2023-03-25T10:45:25.575Z,46.42
2023-03-25T10:47:55.658Z,46.92
2023-03-25T10:50:23.995Z,51.97
2023-03-25T10:52:52.646Z,49.83
2023-03-25T10:55:24.471Z,44.97
2023-03-25T10:57:52.724Z,49.60
2023-03-25T11:00:23.146Z,45.63
2023-03-25T11:02:51.337Z,37.67
2023-03-25T11:05:22.104Z,38.75
2023-03-25T11:07:51.532Z,36.78
2023-03-25T11:10:21.261Z,41.33
2023-03-25T11:12:51.562Z,60.10
2023-03-25T11:15:21.613Z,56.78
2023-03-25T11:17:55.974Z,83.63
2023-03-25T11:20:28.657Z,57.13
2023-03-25T11:23:04.533Z,77.78
2023-03-25T11:25:34.791Z,71.30
2023-03-25T11:28:04.109Z,87.82
2023-03-25T11:30:32.374Z,93.68
2023-03-25T11:33:02.171Z,97.57
2023-03-25T11:35:32.471Z,97.95
2023-03-25T11:38:01.153Z,97.38
2023-03-25T11:40:29.786Z,99.60
2023-03-25T11:42:58.370Z,92.50
2023-03-25T11:45:27.908Z,102.95
2023-03-25T11:47:58.625Z,99.43
2023-03-25T11:50:27.718Z,82.30
2023-03-25T11:52:58.668Z,94.93
2023-03-25T11:55:28.159Z,80.30
2023-03-25T11:57:57.494Z,78.65
2023-03-25T12:00:33.962Z,72.18
2023-03-25T12:03:02.999Z,72.70
2023-03-25T12:05:31.315Z,72.10
2023-03-25T12:08:06.966Z,72.75
2023-03-25T12:10:42.068Z,65.78
2023-03-25T12:13:12.258Z,61.95
2023-03-25T12:15:42.316Z,60.45
2023-03-25T12:18:22.373Z,55.25
2023-03-25T12:20:56.180Z,56.47
2023-03-25T12:23:31.893Z,57.33
2023-03-25T12:26:02.260Z,54.85
2023-03-25T12:28:40.961Z,46.10
2023-03-25T12:31:11.234Z,45.13
2023-03-25T12:33:46.117Z,48.17
2023-03-25T12:36:25.999Z,41.10
2023-03-25T12:39:01.554Z,35.80
2023-03-25T12:41:31.636Z,42.78
2023-03-25T12:44:03.125Z,37.15
2023-03-25T12:47:01.044Z,38.15
2023-03-25T12:49:42.335Z,38.03
2023-03-25T12:52:12.270Z,34.60
2023-03-25T12:55:07.211Z,34.78
2023-03-25T12:57:48.639Z,37.50
2023-03-25T13:00:21.912Z,37.17
2023-03-25T13:03:07.607Z,30.70
2023-03-25T13:05:38.906Z,30.52
2023-03-25T13:08:09.030Z,28.02
2023-03-25T13:10:38.565Z,31.30
2023-03-25T13:13:10.395Z,24.48
2023-03-25T13:15:40.394Z,29.25
2023-03-25T13:18:10.373Z,28.30
2023-03-25T13:20:39.586Z,27.90
2023-03-25T13:23:08.883Z,28.00
2023-03-25T13:25:43.822Z,25.77
2023-03-25T13:28:40.651Z,28.98
2023-03-25T13:31:11.760Z,28.98
2023-03-25T13:33:43.045Z,28.35
2023-03-25T13:36:15.164Z,30.45
2023-03-25T13:38:44.140Z,29.35
2023-03-25T13:41:14.138Z,27.25
2023-03-25T13:43:47.684Z,35.22
2023-03-25T13:46:16.994Z,32.75
2023-03-25T13:48:48.173Z,27.58
2023-03-25T13:51:16.055Z,19.15
2023-03-25T13:53:46.443Z,24.48
2023-03-25T13:56:47.908Z,20.70
2023-03-25T13:59:26.059Z,22.73
2023-03-25T14:02:12.713Z,24.27
2023-03-25T14:05:02.730Z,17.48
2023-03-25T14:07:52.432Z,29.77
2023-03-25T14:10:43.507Z,21.65
2023-03-25T14:13:14.035Z,21.02
2023-03-25T14:15:42.904Z,19.65
2023-03-25T14:18:17.056Z,22.23
2023-03-25T14:20:45.162Z,18.92
2023-03-25T14:23:14.834Z,16.10
2023-03-25T14:25:44.761Z,20.60
2023-03-25T14:28:17.758Z,16.48
2023-03-25T14:30:45.829Z,17.63
2023-03-25T14:33:13.930Z,18.67
2023-03-25T14:35:59.623Z,19.27
2023-03-25T14:38:52.519Z,15.77
2023-03-25T14:41:55.591Z,18.33
2023-03-25T14:44:28.783Z,18.90
2023-03-25T14:47:03.669Z,15.52
2023-03-25T14:49:50.256Z,13.93
2023-03-25T14:52:19.598Z,16.42
2023-03-25T14:54:51.193Z,16.13
2023-03-25T14:57:22.851Z,19.45
2023-03-25T14:59:54.298Z,16.20
2023-03-25T15:02:23.202Z,14.65
2023-03-25T15:04:54.721Z,14.73
2023-03-25T15:07:39.794Z,14.20
2023-03-25T15:10:08.758Z,13.05
2023-03-25T15:12:38.422Z,12.30
2023-03-25T15:15:26.743Z,15.77
2023-03-25T15:17:54.688Z,13.75
2023-03-25T15:20:36.634Z,13.40
2023-03-25T15:23:41.273Z,10.63
2023-03-25T15:26:12.521Z,18.27
2023-03-25T15:29:04.569Z,12.57
2023-03-25T15:31:48.433Z,10.77
2023-03-25T15:34:37.326Z,14.88
2023-03-25T15:37:19.847Z,11.95
2023-03-25T15:39:59.186Z,12.85
2023-03-25T15:42:39.435Z,9.40
2023-03-25T15:45:41.185Z,11.20
2023-03-25T15:48:21.437Z,8.88
2023-03-25T15:50:57.933Z,10.00
2023-03-25T15:53:46.886Z,9.02
2023-03-25T15:56:15.862Z,10.38
2023-03-25T15:58:48.382Z,11.13
2023-03-25T16:01:21.541Z,9.18
2023-03-25T16:03:54.154Z,8.65
2023-03-25T16:06:22.463Z,11.48
2023-03-25T16:08:50.619Z,11.02
2023-03-25T16:11:25.402Z,6.93
2023-03-25T16:14:03.581Z,10.18
2023-03-25T16:16:34.613Z,7.10
2023-03-25T16:19:04.663Z,9.48
2023-03-25T16:21:32.687Z,8.82
2023-03-25T16:24:04.830Z,8.07
2023-03-25T16:26:38.225Z,9.70
2023-03-25T16:29:17.571Z,9.15
2023-03-25T16:31:56.424Z,7.60
2023-03-25T16:34:26.216Z,7.78
2023-03-25T16:36:54.220Z,9.95
2023-03-25T16:39:22.937Z,9.32
2023-03-25T16:41:51.713Z,8.25
2023-03-25T16:44:20.909Z,6.57
2023-03-25T16:46:48.842Z,6.70
2023-03-25T16:49:29.085Z,6.53
2023-03-25T16:51:57.546Z,7.68
2023-03-25T16:54:32.452Z,9.25
2023-03-25T16:57:01.294Z,5.93
2023-03-25T16:59:29.947Z,7.35
2023-03-25T17:02:00.220Z,7.65
2023-03-25T17:04:39.212Z,7.90
2023-03-25T17:07:10.143Z,5.88
2023-03-25T17:09:42.782Z,6.85
2023-03-25T17:12:11.913Z,6.32
2023-03-25T17:14:40.677Z,8.30
2023-03-25T17:17:12.399Z,9.00
2023-03-25T17:19:43.886Z,8.23
2023-03-25T17:22:17.058Z,5.03
2023-03-25T17:24:50.625Z,7.63
2023-03-25T17:27:25.828Z,7.32
2023-03-25T17:29:55.336Z,5.38
2023-03-25T17:32:23.487Z,7.90
2023-03-25T17:35:02.341Z,8.38
2023-03-25T17:37:30.863Z,8.75
2023-03-25T17:40:11.514Z,7.65
2023-03-25T17:42:39.850Z,8.02
2023-03-25T17:45:12.858Z,5.95
2023-03-25T17:47:40.857Z,11.18
2023-03-25T17:50:16.253Z,7.35
2023-03-25T17:52:44.315Z,5.78
2023-03-25T17:55:12.260Z,6.10
2023-03-25T17:57:40.235Z,9.43
2023-03-25T18:00:11.508Z,10.00
2023-03-25T18:02:40.817Z,11.63
2023-03-25T18:05:09.671Z,8.35
2023-03-25T18:07:39.214Z,11.43
2023-03-25T18:10:15.209Z,7.95
2023-03-25T18:12:43.118Z,6.25
2023-03-25T18:15:11.639Z,6.35
2023-03-25T18:17:39.538Z,6.90
2023-03-25T18:20:16.335Z,7.60
2023-03-25T18:22:46.421Z,5.63
2023-03-25T18:25:14.588Z,6.53
2023-03-25T18:27:44.147Z,11.50
2023-03-25T18:30:18.816Z,5.32
2023-03-25T18:32:46.855Z,6.78
2023-03-25T18:35:14.972Z,6.20
2023-03-25T18:37:43.091Z,6.47
2023-03-25T18:40:21.036Z,11.73
2023-03-25T18:42:49.077Z,7.50
2023-03-25T18:45:17.116Z,6.85
2023-03-25T18:47:45.270Z,8.90
2023-03-25T18:50:20.257Z,5.60
2023-03-25T18:52:48.159Z,5.53
2023-03-25T18:55:17.564Z,5.57
2023-03-25T18:57:45.487Z,5.60
2023-03-25T19:00:17.115Z,7.97
2023-03-25T19:02:45.122Z,5.35
2023-03-25T19:05:13.243Z,7.20
2023-03-25T19:07:41.173Z,4.95
2023-03-25T19:10:11.682Z,6.95
2023-03-25T19:12:41.022Z,6.90
2023-03-25T19:15:09.973Z,8.70
2023-03-25T19:17:38.187Z,5.15
2023-03-25T19:20:07.511Z,6.18
2023-03-25T19:22:35.502Z,4.03
2023-03-25T19:25:03.449Z,5.60
2023-03-25T19:27:31.435Z,5.25
2023-03-25T19:30:00.723Z,5.22
2023-03-25T19:32:29.602Z,6.43
2023-03-25T19:34:57.548Z,4.47
2023-03-25T19:37:35.072Z,4.47
2023-03-25T19:40:08.219Z,7.18
2023-03-25T19:42:36.434Z,5.00
2023-03-25T19:45:06.670Z,4.53
2023-03-25T19:47:34.586Z,5.40
2023-03-25T19:50:02.571Z,4.50
2023-03-25T19:52:30.532Z,4.63
2023-03-25T19:54:58.456Z,5.22
2023-03-25T19:57:26.604Z,4.45
2023-03-25T19:59:55.166Z,4.93
2023-03-25T20:02:24.522Z,6.85
2023-03-25T20:04:52.956Z,4.75
2023-03-25T20:07:21.446Z,5.18
2023-03-25T20:09:49.419Z,6.47
2023-03-25T20:12:17.362Z,6.50
2023-03-25T20:14:45.376Z,9.25
2023-03-25T20:17:13.486Z,7.13
2023-03-25T20:19:42.720Z,7.55
2023-03-25T20:22:23.913Z,7.30
2023-03-25T20:24:52.727Z,6.18
2023-03-25T20:27:20.646Z,7.60
2023-03-25T20:29:48.587Z,8.65
2023-03-25T20:32:16.609Z,6.10
2023-03-25T20:34:45.939Z,8.35
2023-03-25T20:37:13.940Z,9.88
2023-03-25T20:39:42.318Z,6.10
2023-03-25T20:42:10.367Z,6.45
2023-03-25T20:44:38.410Z,6.60
2023-03-25T20:47:06.431Z,5.63
2023-03-25T20:49:34.501Z,11.57
2023-03-25T20:52:03.854Z,7.38
2023-03-25T20:54:31.841Z,7.90
2023-03-25T20:56:59.809Z,6.45
2023-03-25T20:59:27.901Z,7.53
2023-03-25T21:01:56.055Z,11.90
2023-03-25T21:04:24.419Z,9.13
2023-03-25T21:06:53.219Z,12.10
2023-03-25T21:09:22.490Z,8.68
2023-03-25T21:11:50.793Z,10.10
2023-03-25T21:14:19.099Z,5.70
2023-03-25T21:16:47.546Z,8.75
2023-03-25T21:19:15.556Z,5.80
2023-03-25T21:21:43.504Z,13.05
2023-03-25T21:24:11.470Z,9.90
2023-03-25T21:26:40.739Z,8.15
2023-03-25T21:29:08.626Z,5.57
2023-03-25T21:31:36.591Z,7.85
2023-03-25T21:34:04.873Z,8.15
2023-03-25T21:36:33.244Z,8.07
2023-03-25T21:39:01.838Z,10.18
2023-03-25T21:41:30.301Z,6.93
2023-03-25T21:43:59.580Z,7.35
2023-03-25T21:46:28.103Z,8.20
2023-03-25T21:48:58.648Z,6.60
2023-03-25T21:51:30.241Z,6.07
2023-03-25T21:54:00.248Z,7.95
2023-03-25T21:56:30.805Z,8.38
2023-03-25T21:59:01.735Z,5.75
2023-03-25T22:01:29.806Z,4.65
2023-03-25T22:03:58.289Z,7.43
2023-03-25T22:06:27.742Z,6.85
2023-03-25T22:08:57.004Z,5.20
2023-03-25T22:11:26.170Z,4.70
2023-03-25T22:13:54.079Z,9.05
2023-03-25T22:16:23.389Z,7.22
2023-03-25T22:18:51.744Z,7.53
2023-03-25T22:21:20.569Z,8.13
2023-03-25T22:23:51.036Z,8.20
2023-03-25T22:26:19.301Z,6.60
2023-03-25T22:28:47.733Z,8.05
2023-03-25T22:31:16.951Z,6.57
2023-03-25T22:33:46.332Z,4.97
2023-03-25T22:36:16.192Z,6.32
2023-03-25T22:38:44.844Z,8.95
2023-03-25T22:41:13.463Z,8.43
2023-03-25T22:43:41.446Z,5.72
2023-03-25T22:46:09.751Z,7.88
2023-03-25T22:48:39.209Z,4.80
2023-03-25T22:51:09.444Z,9.85
2023-03-25T22:53:37.437Z,9.00
2023-03-25T22:56:06.051Z,5.25
2023-03-25T22:58:33.967Z,9.00
2023-03-25T23:01:02.753Z,8.43
2023-03-25T23:03:31.641Z,4.75
2023-03-25T23:06:01.926Z,10.20
2023-03-25T23:08:35.014Z,7.18
2023-03-25T23:11:07.144Z,5.15
2023-03-25T23:13:35.549Z,6.50
2023-03-25T23:16:04.787Z,4.80
2023-03-25T23:18:32.892Z,5.45
2023-03-25T23:21:01.241Z,7.53
2023-03-25T23:23:29.237Z,6.47
2023-03-25T23:26:06.799Z,7.03
2023-03-25T23:28:36.242Z,7.75
2023-03-25T23:31:08.906Z,5.57
2023-03-25T23:33:36.894Z,6.35
2023-03-25T23:36:05.583Z,5.00
2023-03-25T23:38:34.126Z,5.20
2023-03-25T23:41:02.603Z,8.02
2023-03-25T23:43:32.023Z,5.70
2023-03-25T23:45:59.972Z,6.45
2023-03-25T23:48:27.942Z,5.68
2023-03-25T23:50:56.493Z,5.65
2023-03-25T23:53:24.576Z,6.60
2023-03-25T23:55:54.065Z,5.55
2023-03-25T23:58:23.952Z,6.05
